Bangor, ME

8:25 AM EDT on September 27, 2016 (GMT -0400)
Bangor International | | Change Station

Elev 190 ft 44.80 °N, 68.82 °W | Updated 22 minutes ago

Light Rain
Light Rain Mist
53 °F
Feels Like 53 °F
N
0
Wind Variable Wind from North

Today
High -- | Low -- °F
--% Chance of Precip.
Yesterday
High -- | Low -- °F
Precip. -- in
Pressure 29.91 in
Visibility 5.0 miles
Clouds Few 1800 ft
Mostly Cloudy 4400 ft
Overcast 7500 ft
Dew Point 51 °F
Humidity 93%
Rainfall 0.00 in
Snow Depth Not available.
6:28 AM 6:22 PM
Waning Crescent, 12% visible
SPECI KBGR 271203Z 00000KT 5SM -RA BR FEW018 BKN044 OVC075 12/11 A2991 RMK AO2 P0001 T01170106
Pressure 29.91 in
Visibility 5.0 miles
Clouds Few 1800 ft
Mostly Cloudy 4400 ft
Overcast 7500 ft
Dew Point 51 °F
Humidity 93%
Rainfall 0.00 in
Snow Depth Not available.
6:28 AM 6:22 PM
Waning Crescent, 12% visible
SPECI KBGR 271203Z 00000KT 5SM -RA BR FEW018 BKN044 OVC075 12/11 A2991 RMK AO2 P0001 T01170106

10-Day Weather Forecast

Almanac

Astronomy

Sep. 27, 2016 Rise Set
Actual Time
Civil Twilight
Nautical Twilight
Astronomical Twilight
Moon
Length of Visible Light
Length of Day
Tomorrow will be .
, % of the Moon is Illuminated

Today's Extremes

State Highs State Lows

Community

WunderPhotos

Upload Photos

1,942,069 photos uploaded!

WunderBlog® & News

Nearby

Air Quality

  Air Quality AQ Index Pollutant
Not available.

Snow Depth

Station Depth Elevation

Earthquake Activity

City Distance Mag. Time & Date
Minimum magnitude displayed is 2.5.

Coastal Water Temperatures

Place Temperature

Stations

Nearby Weather Stations

Station Location Temp. Windchill Dew Point Humidity Wind Precip. Elev Updated Type
                   

Watches & Warnings

There are currently no watches in effect.